Time,TemperatureF,DewpointF,PressureIn,WindDirection,WindDirectionDegrees,WindSpeedMPH,WindSpeedGustMPH,Humidity,HourlyPrecipIn,Conditions,Clouds,dailyrainin,SoftwareType,DateUTC
2013-08-06 00:02:00,77.0,71.0,29.97,South,187,3.0,8.0,82,0.00,,,0.00,,2013-08-06 04:02:00,
2013-08-06 00:11:00,77.0,71.0,29.97,South,187,3.0,8.0,82,0.00,,,0.00,,2013-08-06 04:11:00,
2013-08-06 00:22:00,77.0,71.0,29.96,SSW,213,3.0,10.0,83,0.00,,,0.00,,2013-08-06 04:22:00,
2013-08-06 00:33:00,76.0,71.0,29.95,South,185,3.0,9.0,85,0.00,,,0.00,,2013-08-06 04:33:00,
2013-08-06 00:44:00,76.0,71.0,29.95,South,169,3.0,12.0,85,0.00,,,0.00,,2013-08-06 04:44:00,
2013-08-06 00:53:00,76.0,71.0,29.95,South,169,3.0,12.0,85,0.00,,,0.00,,2013-08-06 04:53:00,
2013-08-06 01:02:00,76.0,72.0,29.96,SSE,149,2.0,8.0,86,0.00,,,0.00,,2013-08-06 05:02:00,
2013-08-06 01:11:00,76.0,72.0,29.96,SSE,149,2.0,8.0,86,0.00,,,0.00,,2013-08-06 05:11:00,
2013-08-06 01:22:00,75.0,71.0,29.96,SSW,192,1.0,5.0,87,0.00,,,0.00,,2013-08-06 05:22:00,
2013-08-06 01:53:00,75.0,70.0,29.97,South,178,2.0,8.0,85,0.00,,,0.00,,2013-08-06 05:53:00,
2013-08-06 02:02:00,75.0,70.0,29.96,SSE,161,1.0,5.0,85,0.00,,,0.00,,2013-08-06 06:02:00,
2013-08-06 02:11:00,75.0,70.0,29.96,SSW,194,4.0,8.0,85,0.00,,,0.00,,2013-08-06 06:11:00,
2013-08-06 02:22:00,75.0,70.0,29.96,SSW,194,4.0,8.0,85,0.00,,,0.00,,2013-08-06 06:22:00,
2013-08-06 02:32:00,74.0,70.0,29.96,SE,140,1.0,8.0,86,0.00,,,0.00,,2013-08-06 06:32:00,
2013-08-06 02:43:00,74.0,69.0,29.96,South,190,2.0,6.0,85,0.00,,,0.00,,2013-08-06 06:43:00,
2013-08-06 02:52:00,74.0,69.0,29.96,South,190,2.0,6.0,85,0.00,,,0.00,,2013-08-06 06:52:00,
2013-08-06 03:01:00,74.0,69.0,29.96,SSW,202,2.0,9.0,84,0.00,,,0.00,,2013-08-06 07:01:00,
2013-08-06 03:12:00,74.0,69.0,29.95,SW,215,2.0,6.0,85,0.00,,,0.00,,2013-08-06 07:12:00,
2013-08-06 03:22:00,74.0,69.0,29.95,SW,215,2.0,6.0,85,0.00,,,0.00,,2013-08-06 07:22:00,
2013-08-06 03:32:00,74.0,69.0,29.94,SSW,196,3.0,9.0,85,0.00,,,0.00,,2013-08-06 07:32:00,
2013-08-06 03:43:00,74.0,69.0,29.94,South,186,2.0,6.0,85,0.00,,,0.00,,2013-08-06 07:43:00,
2013-08-06 03:53:00,74.0,69.0,29.94,South,186,2.0,6.0,85,0.00,,,0.00,,2013-08-06 07:53:00,
2013-08-06 04:02:00,73.0,68.0,29.93,SSW,211,1.0,7.0,85,0.00,,,0.00,,2013-08-06 08:02:00,
2013-08-06 04:22:00,73.0,68.0,29.93,SE,144,1.0,6.0,85,0.00,,,0.00,,2013-08-06 08:22:00,
2013-08-06 04:33:00,73.0,68.0,29.93,South,188,1.0,7.0,84,0.00,,,0.00,,2013-08-06 08:33:00,
2013-08-06 04:43:00,73.0,68.0,29.93,SW,219,2.0,7.0,84,0.00,,,0.00,,2013-08-06 08:43:00,
2013-08-06 04:52:00,73.0,68.0,29.93,SW,219,2.0,7.0,84,0.00,,,0.00,,2013-08-06 08:52:00,
2013-08-06 05:01:00,72.0,69.0,29.95,North,5,1.0,5.0,89,0.00,,,0.00,,2013-08-06 09:01:00,
2013-08-06 05:11:00,72.0,69.0,29.95,North,5,1.0,5.0,89,0.00,,,0.00,,2013-08-06 09:11:00,
2013-08-06 05:22:00,71.0,69.0,29.95,North,11,1.0,3.0,93,0.18,,,0.18,,2013-08-06 09:22:00,
2013-08-06 05:32:00,70.0,69.0,29.95,North,360,0.0,5.0,96,0.47,,,0.47,,2013-08-06 09:32:00,
2013-08-06 05:43:00,70.0,69.0,29.95,North,355,0.0,1.0,96,0.65,,,0.65,,2013-08-06 09:43:00,
2013-08-06 05:52:00,70.0,69.0,29.95,North,355,0.0,1.0,96,0.65,,,0.65,,2013-08-06 09:52:00,
2013-08-06 06:22:00,70.0,69.0,29.95,East,88,1.0,3.0,96,0.93,,,1.11,,2013-08-06 10:22:00,
2013-08-06 06:32:00,70.0,69.0,29.95,East,88,0.0,2.0,97,0.85,,,1.31,,2013-08-06 10:32:00,
2013-08-06 06:43:00,70.0,69.0,29.95,East,88,0.0,2.0,97,0.86,,,1.52,,2013-08-06 10:43:00,
2013-08-06 06:53:00,70.0,69.0,29.95,East,88,0.0,2.0,97,0.86,,,1.52,,2013-08-06 10:53:00,
2013-08-06 07:02:00,70.0,69.0,29.96,East,88,1.0,3.0,98,0.42,,,1.52,,2013-08-06 11:02:00,
2013-08-06 07:22:00,70.0,69.0,29.96,East,88,0.0,0.0,98,0.42,,,1.54,,2013-08-06 11:22:00,
2013-08-06 07:32:00,70.0,69.0,29.97,East,88,0.0,0.0,98,0.21,,,1.54,,2013-08-06 11:32:00,
2013-08-06 07:43:00,70.0,69.0,29.96,East,88,0.0,0.0,98,0.03,,,1.55,,2013-08-06 11:43:00,
2013-08-06 07:53:00,70.0,69.0,29.96,East,88,0.0,0.0,98,0.03,,,1.55,,2013-08-06 11:53:00,
2013-08-06 08:02:00,70.0,69.0,29.97,East,88,0.0,2.0,98,0.03,,,1.55,,2013-08-06 12:02:00,
2013-08-06 08:11:00,70.0,69.0,29.97,East,88,0.0,2.0,98,0.03,,,1.55,,2013-08-06 12:11:00,
2013-08-06 08:22:00,70.0,69.0,29.97,East,88,0.0,2.0,98,0.01,,,1.55,,2013-08-06 12:22:00,
2013-08-06 08:32:00,70.0,69.0,29.98,SSE,156,1.0,3.0,98,0.01,,,1.55,,2013-08-06 12:32:00,
2013-08-06 08:43:00,70.0,69.0,29.98,SE,134,1.0,4.0,98,0.00,,,1.55,,2013-08-06 12:43:00,
2013-08-06 08:52:00,70.0,69.0,29.98,SE,134,1.0,4.0,98,0.00,,,1.55,,2013-08-06 12:52:00,
2013-08-06 09:02:00,70.0,69.0,29.98,SE,134,0.0,0.0,98,0.00,,,1.55,,2013-08-06 13:02:00,
2013-08-06 09:11:00,70.0,69.0,29.98,SE,134,0.0,0.0,98,0.00,,,1.55,,2013-08-06 13:11:00,
2013-08-06 09:22:00,70.0,69.0,29.98,SE,139,0.0,3.0,98,0.00,,,1.55,,2013-08-06 13:22:00,
2013-08-06 09:32:00,70.0,69.0,29.98,SE,139,0.0,3.0,98,0.00,,,1.55,,2013-08-06 13:32:00,
2013-08-06 09:53:00,71.0,70.0,29.99,SE,135,0.0,4.0,98,0.00,,,1.55,,2013-08-06 13:53:00,
2013-08-06 10:01:00,71.0,70.0,30.00,SE,135,0.0,2.0,97,0.00,,,1.55,,2013-08-06 14:01:00,
2013-08-06 10:11:00,71.0,70.0,30.00,SE,135,0.0,2.0,97,0.00,,,1.55,,2013-08-06 14:11:00,
2013-08-06 10:22:00,71.0,70.0,30.00,ESE,113,0.0,4.0,97,0.00,,,1.55,,2013-08-06 14:22:00,
2013-08-06 10:53:00,71.0,70.0,30.01,ESE,113,0.0,2.0,96,0.00,,,1.55,,2013-08-06 14:53:00,
2013-08-06 11:02:00,72.0,71.0,30.01,ENE,62,1.0,3.0,96,0.00,,,1.55,,2013-08-06 15:02:00,
2013-08-06 11:22:00,71.0,70.0,30.01,SE,127,0.0,3.0,96,0.00,,,1.55,,2013-08-06 15:22:00,
2013-08-06 11:33:00,72.0,70.0,30.00,SE,145,2.0,4.0,95,0.00,,,1.55,,2013-08-06 15:33:00,
2013-08-06 11:44:00,72.0,70.0,30.00,ENE,69,0.0,4.0,95,0.00,,,1.55,,2013-08-06 15:44:00,
2013-08-06 11:52:00,72.0,70.0,30.00,ENE,69,0.0,4.0,95,0.00,,,1.55,,2013-08-06 15:52:00,
2013-08-06 12:02:00,73.0,71.0,30.00,SE,124,0.0,2.0,95,0.00,,,1.55,,2013-08-06 16:02:00,
2013-08-06 12:11:00,73.0,71.0,30.00,SE,124,0.0,2.0,95,0.00,,,1.55,,2013-08-06 16:11:00,
2013-08-06 12:22:00,73.0,71.0,30.00,SE,124,0.0,2.0,94,0.00,,,1.55,,2013-08-06 16:22:00,
2013-08-06 12:43:00,75.0,72.0,30.00,SE,124,0.0,0.0,91,0.00,,,1.55,,2013-08-06 16:43:00,
2013-08-06 12:52:00,75.0,72.0,30.00,SE,124,0.0,0.0,91,0.00,,,1.55,,2013-08-06 16:52:00,
2013-08-06 13:02:00,76.0,73.0,30.00,ESE,107,0.0,1.0,90,0.00,,,1.55,,2013-08-06 17:02:00,
2013-08-06 13:11:00,76.0,73.0,30.00,ESE,107,0.0,1.0,90,0.00,,,1.55,,2013-08-06 17:11:00,
2013-08-06 13:21:00,76.0,73.0,30.01,ESE,107,0.0,0.0,89,0.00,,,1.55,,2013-08-06 17:21:00,
2013-08-06 13:44:00,77.0,73.0,30.00,SW,215,0.0,3.0,87,0.00,,,1.55,,2013-08-06 17:44:00,
2013-08-06 13:52:00,77.0,73.0,30.00,SW,215,0.0,3.0,87,0.00,,,1.55,,2013-08-06 17:52:00,
2013-08-06 14:01:00,79.0,72.0,29.99,ENE,76,2.0,4.0,80,0.00,,,1.55,,2013-08-06 18:01:00,
2013-08-06 14:22:00,80.0,72.0,29.99,SSE,164,1.0,5.0,78,0.00,,,1.55,,2013-08-06 18:22:00,
2013-08-06 14:32:00,81.0,72.0,29.98,ESE,107,3.0,6.0,75,0.00,,,1.55,,2013-08-06 18:32:00,
2013-08-06 14:52:00,82.0,72.0,29.98,West,270,1.0,6.0,73,0.00,,,1.55,,2013-08-06 18:52:00,
2013-08-06 15:01:00,82.0,74.0,29.98,South,188,1.0,4.0,76,0.00,,,1.55,,2013-08-06 19:01:00,
2013-08-06 15:21:00,82.0,74.0,29.97,SW,225,2.0,5.0,76,0.00,,,1.55,,2013-08-06 19:21:00,
2013-08-06 15:32:00,83.0,71.0,29.96,NE,56,2.0,5.0,68,0.00,,,1.55,,2013-08-06 19:32:00,
2013-08-06 15:42:00,84.0,72.0,29.96,SSW,202,2.0,5.0,68,0.00,,,1.55,,2013-08-06 19:42:00,
2013-08-06 15:52:00,84.0,72.0,29.96,SSW,202,2.0,5.0,68,0.00,,,1.55,,2013-08-06 19:52:00,
2013-08-06 16:01:00,82.0,71.0,29.96,SE,128,1.0,3.0,69,0.00,,,1.55,,2013-08-06 20:01:00,
2013-08-06 16:22:00,84.0,73.0,29.96,East,89,3.0,7.0,69,0.00,,,1.55,,2013-08-06 20:22:00,
2013-08-06 16:32:00,82.0,73.0,29.96,SE,130,3.0,7.0,74,0.00,,,1.55,,2013-08-06 20:32:00,
2013-08-06 16:44:00,82.0,72.0,29.96,ESE,116,2.0,4.0,72,0.00,,,1.55,,2013-08-06 20:44:00,
2013-08-06 16:52:00,82.0,72.0,29.96,ESE,116,2.0,4.0,72,0.00,,,1.55,,2013-08-06 20:52:00,
2013-08-06 17:01:00,84.0,73.0,29.95,ESE,115,1.0,5.0,69,0.00,,,1.55,,2013-08-06 21:01:00,
2013-08-06 17:22:00,84.0,74.0,29.96,SE,146,3.0,8.0,71,0.00,,,1.55,,2013-08-06 21:22:00,
2013-08-06 17:32:00,82.0,74.0,29.96,SSE,150,4.0,8.0,76,0.00,,,1.55,,2013-08-06 21:32:00,
2013-08-06 17:43:00,81.0,73.0,29.96,NNE,13,2.0,7.0,77,0.00,,,1.55,,2013-08-06 21:43:00,
2013-08-06 17:52:00,81.0,73.0,29.96,NNE,13,2.0,7.0,77,0.00,,,1.55,,2013-08-06 21:52:00,
2013-08-06 18:01:00,82.0,74.0,29.96,SE,127,3.0,12.0,76,0.00,,,1.55,,2013-08-06 22:01:00,
2013-08-06 18:11:00,81.0,73.0,29.96,East,101,5.0,10.0,77,0.00,,,1.55,,2013-08-06 22:11:00,
2013-08-06 18:22:00,81.0,73.0,29.96,East,101,5.0,10.0,77,0.00,,,1.55,,2013-08-06 22:22:00,
2013-08-06 18:32:00,81.0,73.0,29.96,NE,56,4.0,9.0,77,0.00,,,1.55,,2013-08-06 22:32:00,
2013-08-06 18:43:00,80.0,73.0,29.96,East,85,3.0,7.0,80,0.00,,,1.55,,2013-08-06 22:43:00,
2013-08-06 18:53:00,80.0,73.0,29.96,East,85,3.0,7.0,80,0.00,,,1.55,,2013-08-06 22:53:00,
2013-08-06 19:01:00,79.0,73.0,29.96,East,83,3.0,8.0,81,0.00,,,1.55,,2013-08-06 23:01:00,
2013-08-06 19:11:00,78.0,72.0,29.97,SE,124,3.0,8.0,83,0.00,,,1.55,,2013-08-06 23:11:00,
2013-08-06 19:22:00,78.0,72.0,29.97,SE,124,3.0,8.0,83,0.00,,,1.55,,2013-08-06 23:22:00,
2013-08-06 19:52:00,77.0,72.0,29.97,SSE,149,4.0,11.0,85,0.00,,,1.55,,2013-08-06 23:52:00,
2013-08-06 20:01:00,77.0,72.0,29.97,SSE,150,4.0,7.0,86,0.00,,,1.55,,2013-08-07 00:01:00,
2013-08-06 20:11:00,76.0,72.0,29.98,ESE,106,4.0,12.0,87,0.00,,,1.55,,2013-08-07 00:11:00,
2013-08-06 20:21:00,76.0,72.0,29.98,ESE,106,4.0,12.0,87,0.00,,,1.55,,2013-08-07 00:21:00,
2013-08-06 20:32:00,76.0,72.0,29.98,East,95,1.0,8.0,88,0.00,,,1.55,,2013-08-07 00:32:00,
2013-08-06 20:43:00,76.0,73.0,29.98,ESE,120,3.0,8.0,89,0.00,,,1.55,,2013-08-07 00:43:00,
2013-08-06 20:52:00,76.0,73.0,29.98,ESE,120,3.0,8.0,89,0.00,,,1.55,,2013-08-07 00:52:00,
2013-08-06 21:01:00,75.0,72.0,29.99,ENE,57,2.0,9.0,90,0.00,,,1.55,,2013-08-07 01:01:00,
2013-08-06 21:11:00,75.0,72.0,29.99,ENE,57,2.0,9.0,90,0.00,,,1.55,,2013-08-07 01:11:00,
2013-08-06 21:22:00,75.0,72.0,29.99,NE,39,3.0,8.0,90,0.00,,,1.55,,2013-08-07 01:22:00,
2013-08-06 21:32:00,75.0,72.0,30.00,SSE,155,3.0,9.0,90,0.00,,,1.55,,2013-08-07 01:32:00,
2013-08-06 21:52:00,75.0,72.0,30.01,ESE,123,2.0,5.0,90,0.00,,,1.55,,2013-08-07 01:52:00,
2013-08-06 22:02:00,75.0,72.0,30.01,ESE,123,2.0,5.0,90,0.00,,,1.55,,2013-08-07 02:02:00,
2013-08-06 22:11:00,75.0,72.0,30.01,ESE,123,2.0,5.0,90,0.00,,,1.55,,2013-08-07 02:11:00,
2013-08-06 22:22:00,74.0,72.0,30.01,South,186,2.0,6.0,92,0.01,,,1.56,,2013-08-07 02:22:00,
2013-08-06 22:33:00,73.0,71.0,30.02,SE,134,1.0,5.0,93,0.03,,,1.58,,2013-08-07 02:33:00,
2013-08-06 22:53:00,73.0,71.0,30.03,SE,137,1.0,5.0,95,0.04,,,1.59,,2013-08-07 02:53:00,
2013-08-06 23:01:00,73.0,71.0,30.03,ENE,65,0.0,3.0,95,0.05,,,1.60,,2013-08-07 03:01:00,
2013-08-06 23:12:00,73.0,71.0,30.03,ENE,65,0.0,3.0,95,0.05,,,1.60,,2013-08-07 03:12:00,
2013-08-06 23:23:00,73.0,72.0,30.03,ENE,65,0.0,1.0,96,0.04,,,1.60,,2013-08-07 03:23:00,
2013-08-06 23:52:00,73.0,72.0,30.02,ENE,65,0.0,2.0,97,0.01,,,1.60,,2013-08-07 03:52:00,